createdAt,value
2017-10-25T00:00:30.972Z,3.63
2017-10-25T00:03:01.112Z,4.40
2017-10-25T00:05:31.772Z,4.30
2017-10-25T00:08:01.800Z,3.93
2017-10-25T00:10:31.489Z,4.57
2017-10-25T00:13:01.257Z,4.20
2017-10-25T00:15:31.396Z,3.83
2017-10-25T00:18:01.592Z,3.90
2017-10-25T00:20:35.659Z,4.40
2017-10-25T00:23:05.404Z,3.60
2017-10-25T00:25:35.421Z,4.03
2017-10-25T00:28:05.466Z,4.60
2017-10-25T00:30:35.287Z,3.87
2017-10-25T00:33:04.933Z,3.50
2017-10-25T00:35:34.630Z,4.60
2017-10-25T00:38:04.213Z,3.87
2017-10-25T00:40:36.366Z,3.63
2017-10-25T00:43:06.006Z,3.60
2017-10-25T00:45:35.432Z,3.60
2017-10-25T00:48:06.470Z,4.13
2017-10-25T00:50:35.836Z,4.10
2017-10-25T00:53:05.413Z,3.90
2017-10-25T00:55:34.937Z,4.10
2017-10-25T00:58:04.760Z,3.60
2017-10-25T01:00:38.111Z,4.20
2017-10-25T01:03:07.543Z,4.30
2017-10-25T01:05:38.667Z,3.83
2017-10-25T01:08:09.288Z,4.27
2017-10-25T01:10:39.090Z,5.17
2017-10-25T01:13:11.772Z,4.23
2017-10-25T01:15:41.002Z,4.33
2017-10-25T01:18:19.266Z,4.03
2017-10-25T01:20:51.476Z,5.17
2017-10-25T01:23:21.547Z,5.00
2017-10-25T01:25:51.625Z,5.33
2017-10-25T01:28:22.057Z,4.73
2017-10-25T01:30:52.104Z,5.23
2017-10-25T01:33:21.334Z,4.93
2017-10-25T01:35:54.299Z,4.73
2017-10-25T01:38:24.979Z,4.77
2017-10-25T01:40:54.440Z,4.93
2017-10-25T01:43:23.462Z,4.40
2017-10-25T01:45:55.308Z,8.17
2017-10-25T01:48:24.644Z,4.43
2017-10-25T01:50:54.407Z,4.37
2017-10-25T01:53:24.034Z,4.57
2017-10-25T01:55:53.423Z,5.27
2017-10-25T01:58:27.366Z,4.80
2017-10-25T02:00:56.828Z,4.30
2017-10-25T02:03:27.317Z,4.60
2017-10-25T02:05:57.852Z,4.63
2017-10-25T02:08:27.327Z,4.67
2017-10-25T02:10:57.121Z,4.33
2017-10-25T02:13:27.791Z,4.47
2017-10-25T02:15:57.372Z,4.03
2017-10-25T02:18:27.128Z,3.90
2017-10-25T02:20:58.503Z,4.70
2017-10-25T02:23:29.670Z,4.53
2017-10-25T02:25:59.408Z,3.87
2017-10-25T02:28:28.988Z,4.70
2017-10-25T02:30:59.006Z,4.77
2017-10-25T02:33:28.493Z,4.97
2017-10-25T02:35:59.474Z,5.27
2017-10-25T02:38:30.613Z,4.70
2017-10-25T02:41:00.411Z,5.10
2017-10-25T02:43:30.789Z,4.63
2017-10-25T02:46:02.293Z,4.10
2017-10-25T02:48:33.218Z,4.73
2017-10-25T02:51:03.387Z,5.20
2017-10-25T02:53:33.680Z,6.53
2017-10-25T02:56:04.510Z,6.00
2017-10-25T02:58:33.816Z,5.63
2017-10-25T03:01:04.748Z,5.50
2017-10-25T03:03:38.491Z,6.10
2017-10-25T03:06:10.148Z,6.27
2017-10-25T03:08:39.890Z,5.60
2017-10-25T03:11:09.812Z,5.87
2017-10-25T03:13:39.927Z,6.70
2017-10-25T03:16:09.023Z,6.73
2017-10-25T03:18:38.319Z,9.30
2017-10-25T03:21:08.357Z,6.20
2017-10-25T03:23:38.628Z,10.30
2017-10-25T03:26:08.007Z,9.40
2017-10-25T03:28:37.997Z,8.80
2017-10-25T03:31:08.277Z,7.83
2017-10-25T03:33:37.546Z,11.17
2017-10-25T03:36:07.696Z,10.80
2017-10-25T03:38:38.217Z,8.00
2017-10-25T03:41:08.258Z,7.90
2017-10-25T03:43:38.832Z,7.43
2017-10-25T03:46:08.730Z,8.60
2017-10-25T03:48:38.198Z,9.20
2017-10-25T03:51:08.177Z,8.30
2017-10-25T03:53:37.473Z,6.90
2017-10-25T03:56:06.696Z,6.30
2017-10-25T03:58:35.982Z,7.30
2017-10-25T04:01:05.251Z,7.33
2017-10-25T04:03:35.699Z,9.60
2017-10-25T04:06:06.753Z,6.70
2017-10-25T04:08:36.327Z,7.20
2017-10-25T04:11:06.792Z,7.70
2017-10-25T04:13:37.012Z,9.43
2017-10-25T04:16:07.211Z,8.00
2017-10-25T04:18:36.776Z,7.53
2017-10-25T04:21:06.235Z,10.70
2017-10-25T04:23:36.127Z,13.30
2017-10-25T04:26:05.374Z,22.07
2017-10-25T04:28:34.488Z,15.27
2017-10-25T04:31:03.670Z,10.10
2017-10-25T04:33:33.429Z,12.20
2017-10-25T04:36:02.827Z,10.03
2017-10-25T04:38:32.200Z,10.30
2017-10-25T04:41:01.620Z,11.57
2017-10-25T04:43:30.356Z,11.73
2017-10-25T04:45:59.932Z,10.80
2017-10-25T04:48:29.134Z,11.30
2017-10-25T04:50:58.357Z,11.77
2017-10-25T04:53:27.664Z,11.30
2017-10-25T04:55:57.960Z,9.77
2017-10-25T04:58:27.150Z,10.90
2017-10-25T05:00:56.509Z,11.07
2017-10-25T05:03:25.884Z,10.13
2017-10-25T05:05:55.664Z,8.93
2017-10-25T05:08:25.566Z,9.97
2017-10-25T05:10:55.845Z,8.83
2017-10-25T05:13:25.386Z,8.50
2017-10-25T05:15:55.766Z,11.87
2017-10-25T05:18:25.023Z,14.80
2017-10-25T05:20:56.934Z,56.63
2017-10-25T05:23:30.772Z,28.43
2017-10-25T05:26:00.046Z,15.57
2017-10-25T05:28:29.295Z,9.80
2017-10-25T05:30:58.479Z,8.00
2017-10-25T05:33:27.661Z,6.80
2017-10-25T05:35:57.496Z,7.90
2017-10-25T05:38:27.441Z,6.30
2017-10-25T05:40:58.071Z,5.60
2017-10-25T05:43:27.155Z,6.10
2017-10-25T05:45:56.536Z,6.03
2017-10-25T05:48:26.512Z,5.10
2017-10-25T05:50:56.496Z,5.50
2017-10-25T05:53:25.870Z,4.90
2017-10-25T05:55:55.207Z,6.77
2017-10-25T05:58:24.355Z,4.93
2017-10-25T06:00:53.680Z,5.33
2017-10-25T06:03:23.190Z,4.70
2017-10-25T06:05:52.386Z,4.70
2017-10-25T06:08:21.755Z,4.20
2017-10-25T06:10:50.937Z,4.10
2017-10-25T06:13:25.780Z,4.67
2017-10-25T06:15:54.988Z,4.13
2017-10-25T06:18:24.330Z,5.10
2017-10-25T06:20:53.481Z,4.20
2017-10-25T06:23:22.698Z,4.57
2017-10-25T06:25:52.058Z,4.90
2017-10-25T06:28:21.521Z,4.20
2017-10-25T06:30:51.001Z,4.20
2017-10-25T06:33:20.239Z,3.30
2017-10-25T06:35:49.680Z,4.50
2017-10-25T06:38:18.925Z,3.87
2017-10-25T06:40:48.089Z,4.37
2017-10-25T06:43:17.452Z,4.30
2017-10-25T06:45:46.612Z,4.30
2017-10-25T06:48:15.833Z,3.93
2017-10-25T06:50:45.069Z,4.60
2017-10-25T06:53:15.247Z,5.40
2017-10-25T06:55:44.776Z,5.40
2017-10-25T06:58:14.077Z,5.10
2017-10-25T07:00:43.310Z,5.93
2017-10-25T07:03:12.936Z,5.00
2017-10-25T07:05:42.277Z,5.97
2017-10-25T07:08:11.496Z,4.90
2017-10-25T07:10:40.651Z,5.47
2017-10-25T07:13:10.118Z,4.30
2017-10-25T07:15:39.302Z,3.93
2017-10-25T07:18:09.143Z,4.10
2017-10-25T07:20:38.362Z,4.10
2017-10-25T07:23:07.466Z,4.90
2017-10-25T07:25:37.584Z,4.87
2017-10-25T07:28:07.528Z,5.07
2017-10-25T07:30:36.985Z,4.90
2017-10-25T07:33:06.176Z,5.20
2017-10-25T07:35:35.280Z,5.93
2017-10-25T07:38:04.547Z,5.63
2017-10-25T07:40:34.721Z,6.40
2017-10-25T07:43:04.039Z,6.67
2017-10-25T07:45:33.211Z,7.70
2017-10-25T07:48:02.844Z,7.20
2017-10-25T07:50:32.245Z,9.13
2017-10-25T07:53:01.448Z,17.83
2017-10-25T07:55:30.833Z,21.87
2017-10-25T07:58:00.004Z,17.50
2017-10-25T08:00:29.584Z,16.17
2017-10-25T08:02:58.706Z,31.80
2017-10-25T08:05:28.137Z,43.43
2017-10-25T08:07:58.376Z,39.97
2017-10-25T08:10:27.556Z,55.13
2017-10-25T08:12:56.864Z,47.50
2017-10-25T08:15:26.228Z,40.10
2017-10-25T08:17:55.868Z,36.10
2017-10-25T08:20:25.247Z,26.33
2017-10-25T08:22:54.686Z,20.13
2017-10-25T08:25:23.879Z,21.30
2017-10-25T08:27:53.315Z,20.17
2017-10-25T08:30:24.385Z,20.70
2017-10-25T08:32:53.977Z,20.53
2017-10-25T08:35:23.496Z,19.27
2017-10-25T08:37:53.388Z,19.60
2017-10-25T08:40:23.026Z,19.80
2017-10-25T08:42:52.462Z,18.63
2017-10-25T08:45:22.138Z,18.37
2017-10-25T08:47:51.068Z,20.30
2017-10-25T08:50:20.426Z,18.80
2017-10-25T08:52:49.601Z,14.93
2017-10-25T08:55:19.153Z,15.43
2017-10-25T08:57:48.456Z,16.00
2017-10-25T09:00:18.002Z,12.90
2017-10-25T09:02:48.554Z,14.17
2017-10-25T09:05:18.716Z,16.40
2017-10-25T09:07:47.819Z,20.27
2017-10-25T09:10:17.280Z,45.30
2017-10-25T09:12:47.306Z,30.17
2017-10-25T09:15:16.686Z,22.60
2017-10-25T09:17:46.214Z,17.60
2017-10-25T09:20:15.377Z,17.70
2017-10-25T09:22:46.544Z,72.30
2017-10-25T09:25:16.887Z,52.20
2017-10-25T09:27:46.014Z,26.90
2017-10-25T09:30:15.121Z,51.10
2017-10-25T09:32:45.841Z,52.83
2017-10-25T09:35:15.188Z,41.03
2017-10-25T09:37:45.372Z,30.70
2017-10-25T09:40:14.725Z,28.75
2017-10-25T09:42:44.575Z,26.37
2017-10-25T09:45:13.867Z,19.85
2017-10-25T09:47:43.350Z,26.97
2017-10-25T09:50:12.629Z,31.70
2017-10-25T09:52:42.662Z,30.88
2017-10-25T09:55:11.865Z,39.53
2017-10-25T09:57:41.304Z,32.97
2017-10-25T10:00:10.605Z,23.98
2017-10-25T10:02:40.068Z,14.75
2017-10-25T10:05:09.556Z,18.83
2017-10-25T10:07:39.785Z,15.82
2017-10-25T10:10:09.616Z,20.17
2017-10-25T10:12:40.260Z,16.73
2017-10-25T10:15:09.594Z,14.77
2017-10-25T10:17:38.671Z,13.05
2017-10-25T10:20:08.090Z,18.45
2017-10-25T10:22:37.439Z,15.80
2017-10-25T10:25:06.679Z,17.20
2017-10-25T10:27:35.919Z,15.23
2017-10-25T10:30:05.182Z,16.63
2017-10-25T10:32:34.541Z,22.27
2017-10-25T10:35:04.768Z,20.85
2017-10-25T10:37:34.030Z,20.48
2017-10-25T10:40:03.361Z,23.45
2017-10-25T10:42:33.088Z,15.57
2017-10-25T10:45:02.389Z,19.75
2017-10-25T10:47:31.805Z,16.17
2017-10-25T10:50:01.380Z,17.20
2017-10-25T10:52:30.494Z,20.97
2017-10-25T10:54:59.678Z,19.50
2017-10-25T10:57:29.016Z,13.45
2017-10-25T10:59:58.865Z,19.58
2017-10-25T11:02:28.039Z,22.85
2017-10-25T11:04:58.465Z,14.50
2017-10-25T11:07:28.367Z,19.87
2017-10-25T11:09:57.580Z,17.80
2017-10-25T11:12:26.669Z,18.23
2017-10-25T11:14:55.923Z,16.55
2017-10-25T11:17:25.188Z,21.12
2017-10-25T11:19:54.641Z,19.85
2017-10-25T11:22:24.303Z,15.75
2017-10-25T11:24:53.751Z,18.15
2017-10-25T11:27:23.296Z,19.98
2017-10-25T11:29:52.463Z,22.13
2017-10-25T11:32:22.081Z,20.20
2017-10-25T11:34:51.293Z,15.43
2017-10-25T11:37:22.261Z,17.62
2017-10-25T11:39:51.721Z,20.80
2017-10-25T11:42:21.553Z,19.48
2017-10-25T11:44:50.765Z,17.92
2017-10-25T11:47:20.187Z,15.40
2017-10-25T11:49:49.962Z,14.90
2017-10-25T11:52:18.731Z,15.00
2017-10-25T11:54:47.481Z,16.97
2017-10-25T11:57:16.195Z,14.40
2017-10-25T11:59:45.294Z,22.10
2017-10-25T12:02:15.842Z,22.42
2017-10-25T12:04:45.216Z,24.70
2017-10-25T12:07:15.246Z,26.67
2017-10-25T12:09:44.650Z,26.90
2017-10-25T12:12:14.052Z,19.12
2017-10-25T12:14:43.354Z,15.68
2017-10-25T12:17:13.063Z,22.05
2017-10-25T12:19:42.672Z,18.98
2017-10-25T12:22:12.147Z,18.45
2017-10-25T12:24:42.079Z,16.15
2017-10-25T12:27:11.927Z,15.70
2017-10-25T12:29:41.535Z,18.12
2017-10-25T12:32:10.930Z,23.27
2017-10-25T12:34:40.146Z,17.02
2017-10-25T12:37:09.648Z,17.08
2017-10-25T12:39:39.297Z,17.00
2017-10-25T12:42:08.886Z,22.02
2017-10-25T12:44:38.091Z,16.02
2017-10-25T12:47:07.239Z,15.85
2017-10-25T12:49:36.623Z,16.67
2017-10-25T12:52:06.864Z,15.57
2017-10-25T12:54:35.974Z,21.67
2017-10-25T12:57:05.400Z,20.73
2017-10-25T12:59:34.859Z,19.73
2017-10-25T13:02:04.193Z,18.48
2017-10-25T13:04:33.656Z,14.73
2017-10-25T13:07:02.921Z,13.77
2017-10-25T13:09:32.285Z,14.38
2017-10-25T13:12:07.721Z,14.00
2017-10-25T13:14:56.064Z,21.48
2017-10-25T13:17:44.592Z,21.58
2017-10-25T13:20:14.180Z,23.80
2017-10-25T13:22:44.410Z,17.17
2017-10-25T13:25:13.870Z,16.60
2017-10-25T13:27:43.166Z,21.17
2017-10-25T13:30:12.622Z,26.10
2017-10-25T13:32:42.002Z,17.17
2017-10-25T13:35:11.383Z,30.48
2017-10-25T13:37:41.447Z,18.52
2017-10-25T13:40:10.735Z,17.60
2017-10-25T13:42:40.054Z,16.40
2017-10-25T13:45:09.325Z,17.50
2017-10-25T13:47:39.083Z,16.10
2017-10-25T13:50:08.318Z,15.75
2017-10-25T13:52:37.814Z,15.82
2017-10-25T13:55:07.129Z,14.30
2017-10-25T13:57:36.655Z,15.35
2017-10-25T14:00:06.146Z,14.50
2017-10-25T14:02:35.782Z,17.47
2017-10-25T14:05:05.729Z,12.40
2017-10-25T14:07:35.048Z,16.40
2017-10-25T14:10:04.295Z,36.03
2017-10-25T14:12:33.752Z,26.08
2017-10-25T14:15:03.058Z,31.62
2017-10-25T14:17:32.320Z,26.40
2017-10-25T14:20:02.028Z,18.80
2017-10-25T14:22:31.380Z,27.25
2017-10-25T14:25:00.554Z,16.62
2017-10-25T14:27:41.125Z,13.30
2017-10-25T14:30:10.354Z,18.20
2017-10-25T14:32:39.501Z,12.57
2017-10-25T14:35:08.847Z,11.18
2017-10-25T14:37:38.325Z,11.02
2017-10-25T14:40:08.415Z,11.60
2017-10-25T14:42:47.621Z,11.02
2017-10-25T14:45:17.003Z,10.77
2017-10-25T14:47:46.197Z,10.30
2017-10-25T14:50:16.657Z,10.65
2017-10-25T14:52:45.819Z,11.20
2017-10-25T14:55:14.907Z,9.52
2017-10-25T14:57:44.134Z,10.25
2017-10-25T15:00:13.253Z,10.05
2017-10-25T15:02:42.621Z,10.70
2017-10-25T15:05:11.885Z,10.13
2017-10-25T15:07:41.132Z,13.43
2017-10-25T15:10:10.434Z,13.70
2017-10-25T15:12:39.859Z,33.65
2017-10-25T15:15:10.186Z,23.27
2017-10-25T15:17:39.493Z,17.98
2017-10-25T15:20:08.722Z,20.70
2017-10-25T15:22:37.896Z,18.20
2017-10-25T15:25:06.922Z,20.42
2017-10-25T15:27:36.229Z,13.80
2017-10-25T15:30:05.527Z,14.40
2017-10-25T15:32:34.717Z,13.07
2017-10-25T15:35:04.241Z,13.80
2017-10-25T15:37:33.709Z,15.25
2017-10-25T15:40:03.847Z,19.37
2017-10-25T15:42:33.545Z,19.77
2017-10-25T15:45:02.872Z,20.95
2017-10-25T15:47:36.436Z,15.30
2017-10-25T15:50:05.571Z,19.80
2017-10-25T15:52:34.651Z,19.77
2017-10-25T15:55:03.882Z,15.68
2017-10-25T15:57:33.246Z,14.93
2017-10-25T16:00:02.647Z,15.07
2017-10-25T16:02:32.462Z,15.65
2017-10-25T16:05:01.690Z,15.07
2017-10-25T16:07:30.871Z,15.65
2017-10-25T16:10:00.168Z,14.47
2017-10-25T16:12:29.222Z,13.80
2017-10-25T16:14:58.749Z,15.30
2017-10-25T16:17:28.125Z,14.93
2017-10-25T16:19:58.298Z,15.60
2017-10-25T16:22:31.985Z,17.77
2017-10-25T16:25:01.158Z,20.80
2017-10-25T16:27:30.559Z,16.73
2017-10-25T16:30:00.791Z,17.30
2017-10-25T16:32:30.199Z,19.53
2017-10-25T16:34:59.663Z,26.27
2017-10-25T16:37:29.745Z,22.47
2017-10-25T16:39:58.890Z,22.27
2017-10-25T16:42:30.958Z,22.77
2017-10-25T16:45:00.881Z,20.53
2017-10-25T16:47:31.152Z,22.57
2017-10-25T16:50:00.455Z,24.53
2017-10-25T16:52:29.824Z,26.53
2017-10-25T16:54:59.389Z,29.37
2017-10-25T16:57:28.890Z,28.20
2017-10-25T16:59:58.285Z,27.60
2017-10-25T17:02:27.575Z,28.47
2017-10-25T17:04:56.659Z,29.77
2017-10-25T17:07:25.963Z,33.57
2017-10-25T17:09:55.513Z,28.23
2017-10-25T17:12:24.813Z,27.73
2017-10-25T17:14:54.123Z,28.60
2017-10-25T17:17:23.533Z,27.60
2017-10-25T17:19:53.696Z,30.73
2017-10-25T17:22:22.682Z,31.70
2017-10-25T17:24:53.167Z,30.40
2017-10-25T17:27:23.352Z,28.30
2017-10-25T17:29:52.551Z,26.23
2017-10-25T17:32:21.810Z,27.37
2017-10-25T17:34:51.422Z,25.40
2017-10-25T17:37:20.659Z,27.37
2017-10-25T17:39:49.872Z,24.43
2017-10-25T17:42:19.460Z,26.27
2017-10-25T17:44:48.530Z,23.37
2017-10-25T17:47:17.595Z,22.50
2017-10-25T17:49:47.561Z,24.10
2017-10-25T17:52:17.835Z,25.67
2017-10-25T17:54:47.907Z,22.60
2017-10-25T17:57:19.988Z,21.60
2017-10-25T17:59:50.040Z,22.80
2017-10-25T18:02:19.939Z,23.60
2017-10-25T18:04:49.395Z,21.10
2017-10-25T18:07:19.131Z,21.00
2017-10-25T18:09:48.267Z,22.03
2017-10-25T18:12:18.180Z,21.20
2017-10-25T18:14:47.673Z,22.67
2017-10-25T18:17:16.954Z,21.90
2017-10-25T18:19:46.234Z,21.70
2017-10-25T18:22:15.521Z,20.07
2017-10-25T18:24:44.732Z,21.40
2017-10-25T18:27:14.129Z,21.67
2017-10-25T18:29:43.462Z,23.60
2017-10-25T18:32:12.376Z,22.70
2017-10-25T18:34:41.879Z,20.50
2017-10-25T18:37:11.141Z,21.87
2017-10-25T18:39:40.348Z,24.70
2017-10-25T18:42:09.827Z,19.50
2017-10-25T18:44:39.152Z,18.60
2017-10-25T18:47:09.164Z,18.40
2017-10-25T18:49:38.465Z,21.57
2017-10-25T18:52:07.643Z,15.40
2017-10-25T18:54:37.856Z,12.90
2017-10-25T18:57:07.195Z,9.70
2017-10-25T18:59:36.371Z,8.60
2017-10-25T19:02:05.690Z,7.53
2017-10-25T19:04:34.862Z,9.00
2017-10-25T19:07:04.359Z,8.90
2017-10-25T19:09:33.818Z,9.40
2017-10-25T19:12:03.437Z,8.30
2017-10-25T19:14:33.615Z,21.53
2017-10-25T19:17:03.181Z,22.90
2017-10-25T19:19:32.538Z,20.50
2017-10-25T19:22:01.831Z,21.47
2017-10-25T19:24:31.482Z,21.10
2017-10-25T19:27:01.768Z,20.70
2017-10-25T19:29:31.019Z,21.37
2017-10-25T19:32:00.327Z,20.40
2017-10-25T19:34:29.480Z,20.37
2017-10-25T19:36:58.838Z,19.40
2017-10-25T19:39:28.011Z,17.50
2017-10-25T19:41:57.252Z,14.10
2017-10-25T19:44:26.622Z,8.83
2017-10-25T19:46:57.072Z,8.77
2017-10-25T19:49:26.144Z,9.87
2017-10-25T19:51:55.666Z,8.13
2017-10-25T19:54:24.979Z,7.70
2017-10-25T19:56:54.510Z,9.20
2017-10-25T19:59:23.791Z,8.30
2017-10-25T20:01:52.919Z,17.33
2017-10-25T20:04:22.352Z,13.87
2017-10-25T20:06:51.808Z,8.70
2017-10-25T20:09:21.013Z,9.33
2017-10-25T20:11:50.626Z,8.13
2017-10-25T20:14:19.956Z,7.37
2017-10-25T20:16:50.573Z,7.60
2017-10-25T20:19:20.652Z,7.50
2017-10-25T20:21:49.850Z,8.27
2017-10-25T20:24:19.249Z,7.90
2017-10-25T20:26:48.392Z,7.23
2017-10-25T20:29:17.507Z,10.10
2017-10-25T20:31:46.992Z,8.30
2017-10-25T20:34:16.585Z,10.10
2017-10-25T20:36:45.875Z,9.27
2017-10-25T20:39:15.075Z,7.57
2017-10-25T20:41:44.270Z,8.27
2017-10-25T20:44:30.526Z,8.83
2017-10-25T20:47:18.142Z,14.43
2017-10-25T20:50:04.214Z,17.57
2017-10-25T20:52:51.190Z,16.73
2017-10-25T20:55:21.267Z,16.33
2017-10-25T20:57:51.305Z,16.97
2017-10-25T21:00:20.939Z,18.87
2017-10-25T21:02:50.561Z,19.17
2017-10-25T21:05:20.012Z,17.53
2017-10-25T21:07:50.391Z,16.43
2017-10-25T21:10:19.778Z,15.93
2017-10-25T21:12:49.049Z,16.83
2017-10-25T21:15:18.703Z,18.93
2017-10-25T21:17:48.007Z,17.17
2017-10-25T21:20:17.356Z,18.57
2017-10-25T21:22:46.553Z,19.40
2017-10-25T21:25:16.003Z,19.70
2017-10-25T21:27:45.235Z,17.93
2017-10-25T21:30:15.601Z,19.50
2017-10-25T21:32:44.927Z,21.73
2017-10-25T21:35:14.106Z,23.40
2017-10-25T21:37:43.326Z,22.10
2017-10-25T21:40:12.690Z,21.37
2017-10-25T21:42:42.039Z,23.53
2017-10-25T21:45:11.219Z,22.87
2017-10-25T21:47:41.477Z,21.60
2017-10-25T21:50:11.122Z,20.87
2017-10-25T21:52:40.207Z,19.30
2017-10-25T21:55:10.316Z,19.20
2017-10-25T21:57:40.708Z,18.37
2017-10-25T22:00:10.425Z,19.47
2017-10-25T22:02:39.587Z,19.00
2017-10-25T22:05:08.850Z,19.30
2017-10-25T22:07:38.093Z,16.80
2017-10-25T22:10:07.483Z,17.10
2017-10-25T22:12:37.087Z,16.30
2017-10-25T22:15:06.436Z,16.37
2017-10-25T22:17:35.838Z,16.83
2017-10-25T22:20:05.095Z,18.67
2017-10-25T22:22:34.507Z,17.83
2017-10-25T22:25:04.582Z,16.40
2017-10-25T22:27:34.522Z,16.70
2017-10-25T22:30:04.407Z,16.70
2017-10-25T22:32:34.326Z,16.83
2017-10-25T22:35:03.679Z,16.87
2017-10-25T22:37:33.081Z,16.70
2017-10-25T22:40:02.266Z,16.43
2017-10-25T22:42:31.580Z,17.23
2017-10-25T22:45:00.998Z,19.30
2017-10-25T22:47:29.885Z,15.90
2017-10-25T22:50:00.399Z,17.80
2017-10-25T22:52:29.607Z,17.17
2017-10-25T22:54:58.992Z,16.80
2017-10-25T22:57:28.541Z,17.80
2017-10-25T22:59:58.145Z,17.07
2017-10-25T23:02:27.836Z,14.70
2017-10-25T23:04:59.835Z,16.30
2017-10-25T23:07:31.343Z,16.63
2017-10-25T23:10:01.862Z,16.60
2017-10-25T23:12:33.467Z,16.20
2017-10-25T23:15:03.538Z,14.80
2017-10-25T23:17:33.102Z,17.57
2017-10-25T23:20:02.346Z,16.90
2017-10-25T23:22:33.584Z,15.60
2017-10-25T23:25:02.682Z,15.10
2017-10-25T23:27:34.153Z,15.50
2017-10-25T23:30:03.614Z,16.57
2017-10-25T23:32:33.711Z,15.47
2017-10-25T23:35:03.769Z,15.23
2017-10-25T23:37:34.179Z,14.00
2017-10-25T23:40:05.342Z,15.43
2017-10-25T23:42:34.524Z,14.80
2017-10-25T23:45:04.718Z,15.30
2017-10-25T23:47:33.931Z,15.70
2017-10-25T23:50:03.747Z,15.37
2017-10-25T23:52:33.297Z,15.50
2017-10-25T23:55:02.597Z,15.23
2017-10-25T23:57:31.870Z,13.93
